sensor_id;sensor_type;location;lat;lon;timestamp;temperature;humidity
80218;DHT22;69533;37.974;23.708;2023-05-16T00:00:14;24.10;37.60
80218;DHT22;69533;37.974;23.708;2023-05-16T00:02:40;24.10;37.70
80218;DHT22;69533;37.974;23.708;2023-05-16T00:05:06;24.10;37.70
80218;DHT22;69533;37.974;23.708;2023-05-16T00:07:33;24.10;37.70
80218;DHT22;69533;37.974;23.708;2023-05-16T00:09:59;24.10;37.80
80218;DHT22;69533;37.974;23.708;2023-05-16T00:12:25;24.10;37.70
80218;DHT22;69533;37.974;23.708;2023-05-16T00:14:51;24.00;37.70
80218;DHT22;69533;37.974;23.708;2023-05-16T00:17:18;24.10;37.70
80218;DHT22;69533;37.974;23.708;2023-05-16T00:19:45;24.00;37.70
80218;DHT22;69533;37.974;23.708;2023-05-16T00:22:14;24.00;37.70
80218;DHT22;69533;37.974;23.708;2023-05-16T00:24:40;24.10;37.70
80218;DHT22;69533;37.974;23.708;2023-05-16T00:27:06;24.10;37.70
80218;DHT22;69533;37.974;23.708;2023-05-16T00:29:33;24.10;37.70
80218;DHT22;69533;37.974;23.708;2023-05-16T00:31:59;24.10;37.70
80218;DHT22;69533;37.974;23.708;2023-05-16T00:34:25;24.00;37.80
80218;DHT22;69533;37.974;23.708;2023-05-16T00:36:51;24.00;37.80
80218;DHT22;69533;37.974;23.708;2023-05-16T00:39:17;24.00;37.80
80218;DHT22;69533;37.974;23.708;2023-05-16T00:41:43;24.00;37.80
80218;DHT22;69533;37.974;23.708;2023-05-16T00:44:10;24.00;37.90
80218;DHT22;69533;37.974;23.708;2023-05-16T00:46:36;24.00;37.90
80218;DHT22;69533;37.974;23.708;2023-05-16T00:49:02;24.00;37.80
80218;DHT22;69533;37.974;23.708;2023-05-16T00:51:28;24.00;37.90
80218;DHT22;69533;37.974;23.708;2023-05-16T00:53:54;24.00;37.90
80218;DHT22;69533;37.974;23.708;2023-05-16T00:56:21;24.10;37.90
80218;DHT22;69533;37.974;23.708;2023-05-16T00:58:47;24.10;38.00
80218;DHT22;69533;37.974;23.708;2023-05-16T01:01:13;24.10;38.00
80218;DHT22;69533;37.974;23.708;2023-05-16T01:03:38;24.00;38.00
80218;DHT22;69533;37.974;23.708;2023-05-16T01:06:04;24.00;38.00
80218;DHT22;69533;37.974;23.708;2023-05-16T01:08:30;24.10;38.10
80218;DHT22;69533;37.974;23.708;2023-05-16T01:18:02;24.00;38.10
80218;DHT22;69533;37.974;23.708;2023-05-16T01:28:16;24.00;38.30
80218;DHT22;69533;37.974;23.708;2023-05-16T01:30:42;24.00;38.30
80218;DHT22;69533;37.974;23.708;2023-05-16T01:33:09;24.00;38.30
80218;DHT22;69533;37.974;23.708;2023-05-16T01:35:46;24.00;38.30
80218;DHT22;69533;37.974;23.708;2023-05-16T01:38:26;24.00;38.40
80218;DHT22;69533;37.974;23.708;2023-05-16T01:40:58;24.00;38.40
80218;DHT22;69533;37.974;23.708;2023-05-16T01:43:50;24.00;38.40
80218;DHT22;69533;37.974;23.708;2023-05-16T01:46:25;24.00;38.40
80218;DHT22;69533;37.974;23.708;2023-05-16T01:49:34;24.00;38.40
80218;DHT22;69533;37.974;23.708;2023-05-16T01:52:07;24.00;38.50
80218;DHT22;69533;37.974;23.708;2023-05-16T01:54:37;24.00;38.50
80218;DHT22;69533;37.974;23.708;2023-05-16T01:57:04;24.00;38.50
80218;DHT22;69533;37.974;23.708;2023-05-16T01:59:33;24.00;38.60
80218;DHT22;69533;37.974;23.708;2023-05-16T02:01:59;24.00;38.60
80218;DHT22;69533;37.974;23.708;2023-05-16T02:04:25;24.00;38.70
80218;DHT22;69533;37.974;23.708;2023-05-16T02:06:51;24.00;38.70
80218;DHT22;69533;37.974;23.708;2023-05-16T02:09:17;24.00;38.70
80218;DHT22;69533;37.974;23.708;2023-05-16T02:11:42;24.00;38.80
80218;DHT22;69533;37.974;23.708;2023-05-16T02:14:08;24.00;38.80
80218;DHT22;69533;37.974;23.708;2023-05-16T02:16:35;24.00;39.00
80218;DHT22;69533;37.974;23.708;2023-05-16T02:19:00;24.00;39.00
80218;DHT22;69533;37.974;23.708;2023-05-16T02:21:26;24.00;39.00
80218;DHT22;69533;37.974;23.708;2023-05-16T02:23:52;24.00;39.10
80218;DHT22;69533;37.974;23.708;2023-05-16T02:26:17;24.00;39.20
80218;DHT22;69533;37.974;23.708;2023-05-16T02:28:43;24.10;39.50
80218;DHT22;69533;37.974;23.708;2023-05-16T02:31:09;24.00;39.60
80218;DHT22;69533;37.974;23.708;2023-05-16T02:33:35;24.00;39.90
80218;DHT22;69533;37.974;23.708;2023-05-16T02:36:01;24.00;40.10
80218;DHT22;69533;37.974;23.708;2023-05-16T02:38:26;24.00;40.20
80218;DHT22;69533;37.974;23.708;2023-05-16T02:40:52;24.00;40.30
80218;DHT22;69533;37.974;23.708;2023-05-16T02:43:18;24.00;40.40
80218;DHT22;69533;37.974;23.708;2023-05-16T02:45:43;24.00;40.40
80218;DHT22;69533;37.974;23.708;2023-05-16T02:48:09;24.00;40.40
80218;DHT22;69533;37.974;23.708;2023-05-16T02:50:36;24.00;40.40
80218;DHT22;69533;37.974;23.708;2023-05-16T02:53:02;24.00;40.60
80218;DHT22;69533;37.974;23.708;2023-05-16T02:55:28;24.00;40.60
80218;DHT22;69533;37.974;23.708;2023-05-16T02:57:54;23.90;40.60
80218;DHT22;69533;37.974;23.708;2023-05-16T03:00:20;23.90;40.60
80218;DHT22;69533;37.974;23.708;2023-05-16T03:02:45;23.90;40.60
80218;DHT22;69533;37.974;23.708;2023-05-16T03:05:12;23.90;40.80
80218;DHT22;69533;37.974;23.708;2023-05-16T03:07:37;23.90;40.90
80218;DHT22;69533;37.974;23.708;2023-05-16T03:10:04;23.90;40.90
80218;DHT22;69533;37.974;23.708;2023-05-16T03:12:30;23.90;40.80
80218;DHT22;69533;37.974;23.708;2023-05-16T03:14:56;23.90;40.90
80218;DHT22;69533;37.974;23.708;2023-05-16T03:17:21;24.00;40.80
80218;DHT22;69533;37.974;23.708;2023-05-16T03:19:47;23.90;40.70
80218;DHT22;69533;37.974;23.708;2023-05-16T03:22:13;23.90;40.70
80218;DHT22;69533;37.974;23.708;2023-05-16T03:24:39;23.90;40.90
80218;DHT22;69533;37.974;23.708;2023-05-16T03:27:05;23.90;40.90
80218;DHT22;69533;37.974;23.708;2023-05-16T03:29:31;23.90;41.00
80218;DHT22;69533;37.974;23.708;2023-05-16T03:31:56;23.90;41.10
80218;DHT22;69533;37.974;23.708;2023-05-16T03:34:22;23.90;41.10
80218;DHT22;69533;37.974;23.708;2023-05-16T03:36:49;23.90;41.20
80218;DHT22;69533;37.974;23.708;2023-05-16T03:39:15;23.90;41.30
80218;DHT22;69533;37.974;23.708;2023-05-16T03:41:41;23.90;41.30
80218;DHT22;69533;37.974;23.708;2023-05-16T03:44:07;23.90;41.30
80218;DHT22;69533;37.974;23.708;2023-05-16T03:46:34;23.90;41.30
80218;DHT22;69533;37.974;23.708;2023-05-16T03:49:00;23.90;41.20
80218;DHT22;69533;37.974;23.708;2023-05-16T03:51:25;23.90;41.20
80218;DHT22;69533;37.974;23.708;2023-05-16T03:53:51;23.90;41.10
80218;DHT22;69533;37.974;23.708;2023-05-16T03:56:17;23.90;41.20
80218;DHT22;69533;37.974;23.708;2023-05-16T03:58:42;23.90;41.10
80218;DHT22;69533;37.974;23.708;2023-05-16T04:01:08;23.90;41.10
80218;DHT22;69533;37.974;23.708;2023-05-16T04:03:34;23.90;41.00
80218;DHT22;69533;37.974;23.708;2023-05-16T04:06:00;23.90;41.40
80218;DHT22;69533;37.974;23.708;2023-05-16T04:08:26;24.00;41.00
80218;DHT22;69533;37.974;23.708;2023-05-16T04:10:52;23.90;40.90
80218;DHT22;69533;37.974;23.708;2023-05-16T04:13:17;23.90;40.90
80218;DHT22;69533;37.974;23.708;2023-05-16T04:15:43;24.00;41.00
80218;DHT22;69533;37.974;23.708;2023-05-16T04:18:09;24.00;40.90
80218;DHT22;69533;37.974;23.708;2023-05-16T04:20:35;24.00;40.90
80218;DHT22;69533;37.974;23.708;2023-05-16T04:23:01;24.00;41.10
80218;DHT22;69533;37.974;23.708;2023-05-16T04:25:27;24.00;41.40
80218;DHT22;69533;37.974;23.708;2023-05-16T04:27:52;24.10;41.60
80218;DHT22;69533;37.974;23.708;2023-05-16T04:30:18;24.10;41.50
80218;DHT22;69533;37.974;23.708;2023-05-16T04:32:44;24.20;41.40
80218;DHT22;69533;37.974;23.708;2023-05-16T04:35:09;24.20;41.30
80218;DHT22;69533;37.974;23.708;2023-05-16T04:37:35;24.20;41.10
80218;DHT22;69533;37.974;23.708;2023-05-16T04:40:02;24.20;41.10
80218;DHT22;69533;37.974;23.708;2023-05-16T04:42:28;24.30;41.10
80218;DHT22;69533;37.974;23.708;2023-05-16T04:44:53;24.30;40.90
80218;DHT22;69533;37.974;23.708;2023-05-16T04:47:20;24.40;40.80
80218;DHT22;69533;37.974;23.708;2023-05-16T04:49:46;24.40;40.60
80218;DHT22;69533;37.974;23.708;2023-05-16T04:52:12;24.50;40.40
80218;DHT22;69533;37.974;23.708;2023-05-16T04:54:38;24.50;40.20
80218;DHT22;69533;37.974;23.708;2023-05-16T04:57:04;24.60;40.20
80218;DHT22;69533;37.974;23.708;2023-05-16T04:59:30;24.60;40.10
80218;DHT22;69533;37.974;23.708;2023-05-16T05:01:55;24.60;40.00
80218;DHT22;69533;37.974;23.708;2023-05-16T05:04:21;24.60;39.90
80218;DHT22;69533;37.974;23.708;2023-05-16T05:06:47;24.60;39.80
80218;DHT22;69533;37.974;23.708;2023-05-16T05:09:13;24.60;39.70
80218;DHT22;69533;37.974;23.708;2023-05-16T05:11:38;24.60;39.50
80218;DHT22;69533;37.974;23.708;2023-05-16T05:14:04;24.70;39.50
80218;DHT22;69533;37.974;23.708;2023-05-16T05:16:30;24.70;39.50
80218;DHT22;69533;37.974;23.708;2023-05-16T05:18:56;24.70;39.50
80218;DHT22;69533;37.974;23.708;2023-05-16T05:21:21;24.60;39.40
80218;DHT22;69533;37.974;23.708;2023-05-16T05:23:49;24.70;39.50
80218;DHT22;69533;37.974;23.708;2023-05-16T05:26:16;24.60;39.50
80218;DHT22;69533;37.974;23.708;2023-05-16T05:28:42;24.70;39.60
80218;DHT22;69533;37.974;23.708;2023-05-16T05:31:07;24.70;39.50
80218;DHT22;69533;37.974;23.708;2023-05-16T05:33:33;24.70;39.30
80218;DHT22;69533;37.974;23.708;2023-05-16T05:35:59;24.80;39.10
80218;DHT22;69533;37.974;23.708;2023-05-16T05:38:24;24.90;39.00
80218;DHT22;69533;37.974;23.708;2023-05-16T05:40:50;25.10;38.80
80218;DHT22;69533;37.974;23.708;2023-05-16T05:43:16;25.20;38.60
80218;DHT22;69533;37.974;23.708;2023-05-16T05:45:42;25.30;38.40
80218;DHT22;69533;37.974;23.708;2023-05-16T05:48:08;25.40;38.10
80218;DHT22;69533;37.974;23.708;2023-05-16T05:50:35;25.40;37.80
80218;DHT22;69533;37.974;23.708;2023-05-16T05:53:01;25.50;37.60
80218;DHT22;69533;37.974;23.708;2023-05-16T05:55:27;25.50;37.40
80218;DHT22;69533;37.974;23.708;2023-05-16T05:57:52;25.50;37.30
80218;DHT22;69533;37.974;23.708;2023-05-16T06:00:18;25.50;37.10
80218;DHT22;69533;37.974;23.708;2023-05-16T06:02:44;25.50;37.10
80218;DHT22;69533;37.974;23.708;2023-05-16T06:05:10;25.50;37.00
80218;DHT22;69533;37.974;23.708;2023-05-16T06:07:36;25.50;36.90
80218;DHT22;69533;37.974;23.708;2023-05-16T06:10:01;25.50;36.80
80218;DHT22;69533;37.974;23.708;2023-05-16T06:12:29;25.50;36.70
80218;DHT22;69533;37.974;23.708;2023-05-16T06:14:55;25.50;36.60
80218;DHT22;69533;37.974;23.708;2023-05-16T06:17:21;25.50;36.50
80218;DHT22;69533;37.974;23.708;2023-05-16T06:19:47;25.50;36.50
80218;DHT22;69533;37.974;23.708;2023-05-16T06:22:13;25.50;36.50
80218;DHT22;69533;37.974;23.708;2023-05-16T06:24:39;25.50;36.40
80218;DHT22;69533;37.974;23.708;2023-05-16T06:27:05;25.50;36.40
80218;DHT22;69533;37.974;23.708;2023-05-16T06:29:31;25.50;36.50
80218;DHT22;69533;37.974;23.708;2023-05-16T06:31:57;25.50;36.50
80218;DHT22;69533;37.974;23.708;2023-05-16T06:34:23;25.50;36.40
80218;DHT22;69533;37.974;23.708;2023-05-16T06:36:53;25.50;36.40
80218;DHT22;69533;37.974;23.708;2023-05-16T06:39:19;25.50;36.40
80218;DHT22;69533;37.974;23.708;2023-05-16T06:41:45;25.50;36.50
80218;DHT22;69533;37.974;23.708;2023-05-16T06:44:10;25.40;36.40
80218;DHT22;69533;37.974;23.708;2023-05-16T06:46:36;25.40;36.30
80218;DHT22;69533;37.974;23.708;2023-05-16T06:49:03;25.40;36.40
80218;DHT22;69533;37.974;23.708;2023-05-16T06:51:29;25.40;36.40
80218;DHT22;69533;37.974;23.708;2023-05-16T06:53:56;25.40;36.40
80218;DHT22;69533;37.974;23.708;2023-05-16T06:56:22;25.40;36.50
80218;DHT22;69533;37.974;23.708;2023-05-16T06:58:48;25.40;36.50
80218;DHT22;69533;37.974;23.708;2023-05-16T07:01:14;25.40;36.50
80218;DHT22;69533;37.974;23.708;2023-05-16T07:03:40;25.50;36.60
80218;DHT22;69533;37.974;23.708;2023-05-16T07:06:06;25.40;36.50
80218;DHT22;69533;37.974;23.708;2023-05-16T07:08:32;25.40;36.40
80218;DHT22;69533;37.974;23.708;2023-05-16T07:11:00;25.40;36.40
80218;DHT22;69533;37.974;23.708;2023-05-16T07:13:27;25.40;36.40
80218;DHT22;69533;37.974;23.708;2023-05-16T07:15:52;25.50;36.30
80218;DHT22;69533;37.974;23.708;2023-05-16T07:18:18;25.50;36.30
80218;DHT22;69533;37.974;23.708;2023-05-16T07:20:44;25.50;36.10
80218;DHT22;69533;37.974;23.708;2023-05-16T07:23:10;25.60;36.30
80218;DHT22;69533;37.974;23.708;2023-05-16T07:25:36;25.60;36.30
80218;DHT22;69533;37.974;23.708;2023-05-16T07:28:03;25.70;36.30
80218;DHT22;69533;37.974;23.708;2023-05-16T07:30:28;25.80;36.20
80218;DHT22;69533;37.974;23.708;2023-05-16T07:32:54;25.80;36.40
80218;DHT22;69533;37.974;23.708;2023-05-16T07:35:20;25.90;35.70
80218;DHT22;69533;37.974;23.708;2023-05-16T07:37:46;26.10;35.70
80218;DHT22;69533;37.974;23.708;2023-05-16T07:40:12;26.10;35.70
80218;DHT22;69533;37.974;23.708;2023-05-16T07:42:39;26.20;35.40
80218;DHT22;69533;37.974;23.708;2023-05-16T07:45:05;26.20;35.30
80218;DHT22;69533;37.974;23.708;2023-05-16T07:47:32;26.30;36.30
80218;DHT22;69533;37.974;23.708;2023-05-16T07:49:57;26.30;35.30
80218;DHT22;69533;37.974;23.708;2023-05-16T07:52:23;26.30;35.20
80218;DHT22;69533;37.974;23.708;2023-05-16T07:54:49;26.40;35.20
80218;DHT22;69533;37.974;23.708;2023-05-16T07:57:15;26.40;35.20
80218;DHT22;69533;37.974;23.708;2023-05-16T07:59:42;26.40;35.30
80218;DHT22;69533;37.974;23.708;2023-05-16T08:02:08;26.40;35.20
80218;DHT22;69533;37.974;23.708;2023-05-16T08:04:34;26.40;35.20
80218;DHT22;69533;37.974;23.708;2023-05-16T08:07:01;26.50;35.10
80218;DHT22;69533;37.974;23.708;2023-05-16T08:09:26;26.50;35.10
80218;DHT22;69533;37.974;23.708;2023-05-16T08:11:52;26.60;36.10
80218;DHT22;69533;37.974;23.708;2023-05-16T08:14:56;26.60;34.30
80218;DHT22;69533;37.974;23.708;2023-05-16T08:17:21;26.60;35.10
80218;DHT22;69533;37.974;23.708;2023-05-16T08:19:47;26.70;35.00
80218;DHT22;69533;37.974;23.708;2023-05-16T08:22:13;26.70;35.00
80218;DHT22;69533;37.974;23.708;2023-05-16T08:24:38;26.70;34.80
80218;DHT22;69533;37.974;23.708;2023-05-16T08:27:04;26.70;34.80
80218;DHT22;69533;37.974;23.708;2023-05-16T08:29:30;26.70;34.80
80218;DHT22;69533;37.974;23.708;2023-05-16T08:31:56;26.70;34.70
80218;DHT22;69533;37.974;23.708;2023-05-16T08:34:22;26.80;34.80
80218;DHT22;69533;37.974;23.708;2023-05-16T08:36:47;26.80;34.90
80218;DHT22;69533;37.974;23.708;2023-05-16T08:39:13;26.80;34.80
80218;DHT22;69533;37.974;23.708;2023-05-16T08:41:39;26.90;34.70
80218;DHT22;69533;37.974;23.708;2023-05-16T08:44:05;26.90;34.60
80218;DHT22;69533;37.974;23.708;2023-05-16T08:46:32;26.90;34.60
80218;DHT22;69533;37.974;23.708;2023-05-16T08:49:00;27.00;34.60
80218;DHT22;69533;37.974;23.708;2023-05-16T08:51:31;26.90;34.50
80218;DHT22;69533;37.974;23.708;2023-05-16T08:54:03;26.90;34.40
80218;DHT22;69533;37.974;23.708;2023-05-16T08:56:32;26.90;34.50
80218;DHT22;69533;37.974;23.708;2023-05-16T08:58:58;27.00;34.50
80218;DHT22;69533;37.974;23.708;2023-05-16T09:01:25;27.00;34.40
80218;DHT22;69533;37.974;23.708;2023-05-16T09:03:52;27.00;35.40
80218;DHT22;69533;37.974;23.708;2023-05-16T09:06:18;27.00;34.40
80218;DHT22;69533;37.974;23.708;2023-05-16T09:08:44;27.10;34.40
80218;DHT22;69533;37.974;23.708;2023-05-16T09:11:10;27.10;34.30
80218;DHT22;69533;37.974;23.708;2023-05-16T09:13:37;27.00;34.20
80218;DHT22;69533;37.974;23.708;2023-05-16T09:16:14;27.10;34.40
80218;DHT22;69533;37.974;23.708;2023-05-16T09:18:43;27.10;34.30
80218;DHT22;69533;37.974;23.708;2023-05-16T09:21:10;27.10;34.30
80218;DHT22;69533;37.974;23.708;2023-05-16T09:23:36;27.10;34.30
80218;DHT22;69533;37.974;23.708;2023-05-16T09:26:05;27.10;34.30
80218;DHT22;69533;37.974;23.708;2023-05-16T09:28:33;27.10;34.40
80218;DHT22;69533;37.974;23.708;2023-05-16T09:30:59;27.10;34.30
80218;DHT22;69533;37.974;23.708;2023-05-16T09:33:28;27.10;34.40
80218;DHT22;69533;37.974;23.708;2023-05-16T09:36:03;27.10;34.50
80218;DHT22;69533;37.974;23.708;2023-05-16T09:38:29;27.10;34.60
80218;DHT22;69533;37.974;23.708;2023-05-16T09:40:54;27.10;34.60
80218;DHT22;69533;37.974;23.708;2023-05-16T09:43:24;27.10;34.70
80218;DHT22;69533;37.974;23.708;2023-05-16T09:45:50;27.10;34.70
80218;DHT22;69533;37.974;23.708;2023-05-16T09:48:18;27.10;34.60
80218;DHT22;69533;37.974;23.708;2023-05-16T09:50:50;27.10;34.60
80218;DHT22;69533;37.974;23.708;2023-05-16T09:53:18;27.10;34.50
80218;DHT22;69533;37.974;23.708;2023-05-16T09:55:58;27.10;34.50
80218;DHT22;69533;37.974;23.708;2023-05-16T09:58:30;27.10;34.70
80218;DHT22;69533;37.974;23.708;2023-05-16T10:00:56;27.10;34.80
80218;DHT22;69533;37.974;23.708;2023-05-16T10:03:24;27.10;34.90
80218;DHT22;69533;37.974;23.708;2023-05-16T10:05:51;27.10;35.10
80218;DHT22;69533;37.974;23.708;2023-05-16T10:08:20;27.10;35.20
80218;DHT22;69533;37.974;23.708;2023-05-16T10:10:50;27.10;35.30
80218;DHT22;69533;37.974;23.708;2023-05-16T10:13:22;27.10;35.40
80218;DHT22;69533;37.974;23.708;2023-05-16T10:15:49;27.10;36.40
80218;DHT22;69533;37.974;23.708;2023-05-16T10:18:17;27.10;35.50
80218;DHT22;69533;37.974;23.708;2023-05-16T10:20:45;27.10;35.50
80218;DHT22;69533;37.974;23.708;2023-05-16T10:23:16;27.20;35.70
80218;DHT22;69533;37.974;23.708;2023-05-16T10:25:43;27.20;35.80
80218;DHT22;69533;37.974;23.708;2023-05-16T10:28:10;27.20;35.90
80218;DHT22;69533;37.974;23.708;2023-05-16T10:30:40;27.20;36.00
80218;DHT22;69533;37.974;23.708;2023-05-16T10:33:12;27.20;36.30
80218;DHT22;69533;37.974;23.708;2023-05-16T10:35:38;27.20;36.50
80218;DHT22;69533;37.974;23.708;2023-05-16T10:38:05;27.10;36.40
80218;DHT22;69533;37.974;23.708;2023-05-16T10:40:32;27.10;36.80
80218;DHT22;69533;37.974;23.708;2023-05-16T10:43:00;27.10;36.90
80218;DHT22;69533;37.974;23.708;2023-05-16T10:45:26;27.10;37.10
80218;DHT22;69533;37.974;23.708;2023-05-16T10:47:56;27.10;37.20
80218;DHT22;69533;37.974;23.708;2023-05-16T10:50:42;27.00;37.40
80218;DHT22;69533;37.974;23.708;2023-05-16T11:01:21;27.00;38.00
80218;DHT22;69533;37.974;23.708;2023-05-16T11:04:08;27.10;38.10
80218;DHT22;69533;37.974;23.708;2023-05-16T11:19:42;27.10;38.60
80218;DHT22;69533;37.974;23.708;2023-05-16T11:27:45;27.10;38.70
80218;DHT22;69533;37.974;23.708;2023-05-16T11:30:15;27.10;38.70
80218;DHT22;69533;37.974;23.708;2023-05-16T11:32:43;27.10;38.80
80218;DHT22;69533;37.974;23.708;2023-05-16T11:35:14;27.10;38.70
80218;DHT22;69533;37.974;23.708;2023-05-16T11:37:41;27.10;38.80
80218;DHT22;69533;37.974;23.708;2023-05-16T11:40:10;27.10;38.80
80218;DHT22;69533;37.974;23.708;2023-05-16T11:42:37;27.10;38.80
80218;DHT22;69533;37.974;23.708;2023-05-16T11:45:07;27.10;38.80
80218;DHT22;69533;37.974;23.708;2023-05-16T11:47:35;27.10;38.70
80218;DHT22;69533;37.974;23.708;2023-05-16T11:50:09;27.10;38.60
80218;DHT22;69533;37.974;23.708;2023-05-16T11:52:36;27.10;38.60
80218;DHT22;69533;37.974;23.708;2023-05-16T11:55:04;27.20;38.60
80218;DHT22;69533;37.974;23.708;2023-05-16T11:57:32;27.20;38.40
80218;DHT22;69533;37.974;23.708;2023-05-16T12:00:04;27.20;38.40
80218;DHT22;69533;37.974;23.708;2023-05-16T12:02:40;27.20;38.30
80218;DHT22;69533;37.974;23.708;2023-05-16T12:05:09;27.20;38.20
80218;DHT22;69533;37.974;23.708;2023-05-16T12:07:38;27.20;38.20
80218;DHT22;69533;37.974;23.708;2023-05-16T12:10:12;27.20;38.10
80218;DHT22;69533;37.974;23.708;2023-05-16T12:12:39;27.30;38.10
80218;DHT22;69533;37.974;23.708;2023-05-16T12:15:08;27.30;38.00
80218;DHT22;69533;37.974;23.708;2023-05-16T12:17:38;27.30;37.90
80218;DHT22;69533;37.974;23.708;2023-05-16T12:20:05;27.30;38.80
80218;DHT22;69533;37.974;23.708;2023-05-16T12:22:32;27.30;37.90
80218;DHT22;69533;37.974;23.708;2023-05-16T12:27:48;27.30;37.90
80218;DHT22;69533;37.974;23.708;2023-05-16T12:30:16;27.30;37.80
80218;DHT22;69533;37.974;23.708;2023-05-16T12:32:42;27.20;37.70
80218;DHT22;69533;37.974;23.708;2023-05-16T12:35:09;27.30;37.70
80218;DHT22;69533;37.974;23.708;2023-05-16T12:37:36;27.30;37.70
80218;DHT22;69533;37.974;23.708;2023-05-16T12:40:02;27.20;37.70
80218;DHT22;69533;37.974;23.708;2023-05-16T12:42:29;27.20;37.70
80218;DHT22;69533;37.974;23.708;2023-05-16T12:44:55;27.20;37.90
80218;DHT22;69533;37.974;23.708;2023-05-16T12:47:21;27.10;37.90
80218;DHT22;69533;37.974;23.708;2023-05-16T12:49:47;27.10;37.90
80218;DHT22;69533;37.974;23.708;2023-05-16T12:52:20;27.10;38.00
80218;DHT22;69533;37.974;23.708;2023-05-16T12:54:47;27.10;38.00
80218;DHT22;69533;37.974;23.708;2023-05-16T12:57:13;27.10;38.00
80218;DHT22;69533;37.974;23.708;2023-05-16T12:59:39;27.10;38.00
80218;DHT22;69533;37.974;23.708;2023-05-16T13:02:05;27.20;38.00
80218;DHT22;69533;37.974;23.708;2023-05-16T13:04:30;27.20;38.00
80218;DHT22;69533;37.974;23.708;2023-05-16T13:06:56;27.20;37.90
80218;DHT22;69533;37.974;23.708;2023-05-16T13:09:22;27.20;37.80
80218;DHT22;69533;37.974;23.708;2023-05-16T13:11:48;27.20;37.80
80218;DHT22;69533;37.974;23.708;2023-05-16T13:14:15;27.30;37.90
80218;DHT22;69533;37.974;23.708;2023-05-16T13:16:44;27.30;37.90
80218;DHT22;69533;37.974;23.708;2023-05-16T13:19:10;27.20;38.00
80218;DHT22;69533;37.974;23.708;2023-05-16T13:21:36;27.20;37.90
80218;DHT22;69533;37.974;23.708;2023-05-16T13:24:03;27.20;39.00
80218;DHT22;69533;37.974;23.708;2023-05-16T13:26:28;27.20;38.10
80218;DHT22;69533;37.974;23.708;2023-05-16T13:28:54;27.10;38.10
80218;DHT22;69533;37.974;23.708;2023-05-16T13:31:24;27.10;38.30
80218;DHT22;69533;37.974;23.708;2023-05-16T13:33:50;27.00;38.40
80218;DHT22;69533;37.974;23.708;2023-05-16T13:36:16;27.10;38.70
80218;DHT22;69533;37.974;23.708;2023-05-16T13:38:42;27.10;38.60
80218;DHT22;69533;37.974;23.708;2023-05-16T13:41:08;27.00;38.60
80218;DHT22;69533;37.974;23.708;2023-05-16T13:43:33;27.10;38.80
80218;DHT22;69533;37.974;23.708;2023-05-16T13:45:59;27.00;38.80
80218;DHT22;69533;37.974;23.708;2023-05-16T13:48:25;27.10;38.90
80218;DHT22;69533;37.974;23.708;2023-05-16T13:50:51;27.00;39.00
80218;DHT22;69533;37.974;23.708;2023-05-16T13:53:17;27.00;39.00
80218;DHT22;69533;37.974;23.708;2023-05-16T13:55:44;27.10;39.20
80218;DHT22;69533;37.974;23.708;2023-05-16T13:58:10;27.00;39.10
80218;DHT22;69533;37.974;23.708;2023-05-16T14:00:36;27.00;39.30
80218;DHT22;69533;37.974;23.708;2023-05-16T14:03:02;26.90;39.30
80218;DHT22;69533;37.974;23.708;2023-05-16T14:05:28;26.90;39.50
80218;DHT22;69533;37.974;23.708;2023-05-16T14:07:53;26.90;39.60
80218;DHT22;69533;37.974;23.708;2023-05-16T14:10:19;26.80;39.50
80218;DHT22;69533;37.974;23.708;2023-05-16T14:12:45;26.80;39.70
80218;DHT22;69533;37.974;23.708;2023-05-16T14:15:11;26.70;39.70
80218;DHT22;69533;37.974;23.708;2023-05-16T14:17:37;26.70;39.90
80218;DHT22;69533;37.974;23.708;2023-05-16T14:20:03;26.70;40.00
80218;DHT22;69533;37.974;23.708;2023-05-16T14:22:33;26.70;40.10
80218;DHT22;69533;37.974;23.708;2023-05-16T14:24:59;26.70;40.30
80218;DHT22;69533;37.974;23.708;2023-05-16T14:27:25;26.60;40.40
80218;DHT22;69533;37.974;23.708;2023-05-16T14:29:51;26.50;40.50
80218;DHT22;69533;37.974;23.708;2023-05-16T14:32:17;26.50;40.60
80218;DHT22;69533;37.974;23.708;2023-05-16T14:34:42;26.50;40.80
80218;DHT22;69533;37.974;23.708;2023-05-16T14:37:08;26.50;40.90
80218;DHT22;69533;37.974;23.708;2023-05-16T14:39:34;26.40;41.10
80218;DHT22;69533;37.974;23.708;2023-05-16T14:42:00;26.40;41.20
80218;DHT22;69533;37.974;23.708;2023-05-16T14:44:26;26.40;41.40
80218;DHT22;69533;37.974;23.708;2023-05-16T14:46:52;26.30;42.60
80218;DHT22;69533;37.974;23.708;2023-05-16T14:49:18;26.30;41.80
80218;DHT22;69533;37.974;23.708;2023-05-16T14:51:44;26.30;42.10
80218;DHT22;69533;37.974;23.708;2023-05-16T14:54:13;26.30;42.20
80218;DHT22;69533;37.974;23.708;2023-05-16T14:56:39;26.20;42.30
80218;DHT22;69533;37.974;23.708;2023-05-16T14:59:05;26.20;42.40
80218;DHT22;69533;37.974;23.708;2023-05-16T15:01:30;26.20;42.80
80218;DHT22;69533;37.974;23.708;2023-05-16T15:03:56;26.20;43.00
80218;DHT22;69533;37.974;23.708;2023-05-16T15:06:23;26.20;43.10
80218;DHT22;69533;37.974;23.708;2023-05-16T15:08:48;26.20;43.10
80218;DHT22;69533;37.974;23.708;2023-05-16T15:11:15;26.20;42.90
80218;DHT22;69533;37.974;23.708;2023-05-16T15:13:40;26.20;42.70
80218;DHT22;69533;37.974;23.708;2023-05-16T15:16:06;26.10;42.20
80218;DHT22;69533;37.974;23.708;2023-05-16T15:18:32;26.10;41.70
80218;DHT22;69533;37.974;23.708;2023-05-16T15:20:58;26.10;41.40
80218;DHT22;69533;37.974;23.708;2023-05-16T15:23:24;26.10;41.20
80218;DHT22;69533;37.974;23.708;2023-05-16T15:25:50;26.10;41.00
80218;DHT22;69533;37.974;23.708;2023-05-16T15:28:16;26.00;40.90
80218;DHT22;69533;37.974;23.708;2023-05-16T15:30:43;26.00;41.00
80218;DHT22;69533;37.974;23.708;2023-05-16T15:33:09;26.00;41.10
80218;DHT22;69533;37.974;23.708;2023-05-16T15:35:35;26.00;41.30
80218;DHT22;69533;37.974;23.708;2023-05-16T15:38:01;26.00;41.40
80218;DHT22;69533;37.974;23.708;2023-05-16T15:40:27;26.00;41.60
80218;DHT22;69533;37.974;23.708;2023-05-16T15:42:52;26.00;41.70
80218;DHT22;69533;37.974;23.708;2023-05-16T15:45:18;26.00;41.80
80218;DHT22;69533;37.974;23.708;2023-05-16T15:47:44;26.00;41.70
80218;DHT22;69533;37.974;23.708;2023-05-16T15:50:09;26.00;41.70
80218;DHT22;69533;37.974;23.708;2023-05-16T15:52:36;26.00;41.70
80218;DHT22;69533;37.974;23.708;2023-05-16T15:55:02;26.00;41.70
80218;DHT22;69533;37.974;23.708;2023-05-16T15:57:29;26.00;41.70